createdAt,value
2022-10-22T00:00:38.413Z,10.75
2022-10-22T00:01:41.529Z,10.90
2022-10-22T00:02:45.280Z,8.63
2022-10-22T00:03:48.298Z,14.27
2022-10-22T00:04:51.994Z,18.70
2022-10-22T00:05:54.781Z,10.98
2022-10-22T00:06:57.620Z,11.07
2022-10-22T00:08:00.477Z,8.13
2022-10-22T00:09:03.713Z,8.35
2022-10-22T00:10:08.103Z,10.38
2022-10-22T00:11:14.770Z,13.18
2022-10-22T00:12:17.862Z,11.40
2022-10-22T00:13:21.556Z,8.00
2022-10-22T00:14:24.366Z,15.40
2022-10-22T00:15:27.229Z,10.10
2022-10-22T00:16:30.063Z,9.75
2022-10-22T00:17:33.195Z,10.48
2022-10-22T00:18:36.574Z,11.65
2022-10-22T00:19:40.093Z,11.12
2022-10-22T00:20:43.692Z,10.25
2022-10-22T00:21:46.483Z,13.40
2022-10-22T00:23:52.924Z,8.45
2022-10-22T00:24:55.837Z,12.52
2022-10-22T00:25:58.783Z,8.88
2022-10-22T00:27:02.449Z,7.72
2022-10-22T00:28:05.558Z,10.95
2022-10-22T00:29:08.448Z,10.07
2022-10-22T00:30:12.171Z,10.88
2022-10-22T00:31:15.944Z,10.95
2022-10-22T00:32:18.834Z,9.23
2022-10-22T00:33:21.795Z,10.38
2022-10-22T00:34:25.515Z,9.30
2022-10-22T00:35:28.345Z,10.05
2022-10-22T00:36:31.194Z,6.75
2022-10-22T00:37:34.019Z,8.20
2022-10-22T00:38:36.914Z,10.90
2022-10-22T00:39:39.832Z,10.63
2022-10-22T00:40:42.811Z,13.48
2022-10-22T00:41:47.966Z,8.70
2022-10-22T00:42:50.939Z,9.10
2022-10-22T00:43:56.830Z,8.15
2022-10-22T00:45:14.070Z,8.27
2022-10-22T00:46:17.342Z,11.30
2022-10-22T00:47:21.364Z,10.07
2022-10-22T00:48:28.538Z,9.77
2022-10-22T00:49:31.535Z,11.05
2022-10-22T00:50:49.144Z,8.15
2022-10-22T00:51:51.892Z,12.00
2022-10-22T00:52:55.747Z,11.20
2022-10-22T00:54:04.930Z,8.18
2022-10-22T00:55:08.095Z,12.25
2022-10-22T00:56:12.033Z,10.10
2022-10-22T00:57:16.954Z,8.35
2022-10-22T00:58:26.376Z,9.77
2022-10-22T00:59:30.057Z,9.52
2022-10-22T01:00:33.437Z,8.18
2022-10-22T01:01:36.414Z,11.25
2022-10-22T01:02:39.630Z,7.82
2022-10-22T01:03:42.920Z,8.25
2022-10-22T01:04:49.371Z,12.00
2022-10-22T01:05:58.024Z,9.30
2022-10-22T01:07:01.509Z,8.88
2022-10-22T01:08:04.733Z,9.38
2022-10-22T01:09:13.752Z,8.68
2022-10-22T01:10:26.035Z,10.98
2022-10-22T01:12:04.444Z,8.57
2022-10-22T01:13:34.117Z,7.82
2022-10-22T01:14:44.839Z,9.43
2022-10-22T01:16:04.529Z,7.53
2022-10-22T01:17:14.153Z,9.55
2022-10-22T01:18:37.462Z,9.50
2022-10-22T01:19:49.267Z,9.00
2022-10-22T01:21:01.003Z,12.40
2022-10-22T01:23:31.207Z,12.27
2022-10-22T01:25:03.562Z,7.90
2022-10-22T01:26:25.712Z,8.10
2022-10-22T01:27:43.373Z,8.00
2022-10-22T01:29:07.420Z,13.50
2022-10-22T01:30:14.947Z,12.85
2022-10-22T01:31:20.618Z,9.52
2022-10-22T01:32:26.776Z,11.00
2022-10-22T01:33:31.466Z,9.25
2022-10-22T01:34:35.449Z,11.25
2022-10-22T01:35:42.220Z,10.43
2022-10-22T01:36:47.178Z,11.57
2022-10-22T01:37:56.135Z,11.48
2022-10-22T01:39:02.186Z,8.38
2022-10-22T01:40:06.621Z,10.13
2022-10-22T01:41:11.308Z,10.70
2022-10-22T01:42:15.134Z,12.00
2022-10-22T01:43:18.143Z,8.95
2022-10-22T01:44:30.050Z,12.37
2022-10-22T01:45:40.826Z,9.18
2022-10-22T01:46:43.778Z,12.07
2022-10-22T01:48:07.900Z,17.52
2022-10-22T01:49:24.614Z,10.68
2022-10-22T01:50:33.337Z,11.40
2022-10-22T01:51:50.460Z,10.45
2022-10-22T01:53:11.752Z,9.48
2022-10-22T01:54:42.140Z,8.82
2022-10-22T01:55:50.979Z,9.60
2022-10-22T01:57:09.773Z,10.15
2022-10-22T01:58:22.894Z,8.82
2022-10-22T01:59:52.025Z,8.55
2022-10-22T02:01:11.349Z,10.75
2022-10-22T02:02:40.182Z,8.10
2022-10-22T02:03:55.580Z,15.88
2022-10-22T02:05:24.185Z,9.23
2022-10-22T02:06:29.174Z,13.30
2022-10-22T02:07:38.230Z,12.90
2022-10-22T02:08:42.239Z,13.30
2022-10-22T02:09:45.968Z,14.77
2022-10-22T02:10:51.374Z,11.35
2022-10-22T02:11:55.997Z,11.20
2022-10-22T02:13:01.456Z,16.58
2022-10-22T02:14:07.815Z,15.25
2022-10-22T02:15:13.815Z,12.40
2022-10-22T02:16:23.102Z,14.77
2022-10-22T02:17:29.508Z,11.05
2022-10-22T02:18:36.424Z,14.35
2022-10-22T02:19:48.857Z,8.70
2022-10-22T02:20:53.338Z,9.88
2022-10-22T02:21:56.253Z,10.82
2022-10-22T02:23:00.543Z,12.82
2022-10-22T02:24:03.536Z,10.73
2022-10-22T02:25:07.494Z,9.43
2022-10-22T02:26:36.020Z,10.40
2022-10-22T02:27:48.190Z,11.90
2022-10-22T02:29:00.785Z,9.95
2022-10-22T02:30:08.338Z,12.00
2022-10-22T02:31:17.213Z,8.88
2022-10-22T02:32:26.735Z,9.48
2022-10-22T02:33:34.410Z,9.90
2022-10-22T02:34:37.368Z,10.20
2022-10-22T02:35:42.549Z,11.55
2022-10-22T02:36:49.709Z,10.32
2022-10-22T02:37:57.633Z,8.23
2022-10-22T02:39:01.173Z,7.82
2022-10-22T02:40:04.381Z,7.68
2022-10-22T02:41:07.353Z,10.05
2022-10-22T02:42:12.628Z,9.73
2022-10-22T02:43:15.466Z,10.48
2022-10-22T02:44:21.827Z,10.88
2022-10-22T02:45:28.236Z,12.82
2022-10-22T02:46:31.002Z,11.52
2022-10-22T02:47:33.911Z,9.05
2022-10-22T02:48:37.470Z,10.80
2022-10-22T02:49:40.292Z,9.75
2022-10-22T02:50:43.242Z,9.63
2022-10-22T02:51:46.196Z,11.10
2022-10-22T02:52:49.220Z,10.43
2022-10-22T02:53:52.488Z,7.87
2022-10-22T02:54:55.445Z,10.30
2022-10-22T02:55:58.770Z,6.35
2022-10-22T02:57:01.829Z,9.20
2022-10-22T02:58:08.737Z,8.60
2022-10-22T02:59:11.824Z,10.65
2022-10-22T03:00:15.183Z,10.43
2022-10-22T03:01:18.040Z,9.77
2022-10-22T03:02:21.097Z,7.43
2022-10-22T03:03:24.155Z,10.07
2022-10-22T03:04:27.102Z,11.65
2022-10-22T03:05:29.849Z,11.00
2022-10-22T03:06:32.774Z,9.20
2022-10-22T03:07:35.567Z,9.65
2022-10-22T03:08:38.454Z,13.43
2022-10-22T03:09:41.312Z,8.75
2022-10-22T03:10:44.337Z,7.78
2022-10-22T03:11:47.537Z,11.85
2022-10-22T03:12:50.595Z,11.27
2022-10-22T03:13:53.644Z,11.10
2022-10-22T03:14:56.541Z,9.43
2022-10-22T03:15:59.339Z,12.27
2022-10-22T03:17:02.708Z,8.45
2022-10-22T03:18:05.624Z,8.15
2022-10-22T03:19:08.849Z,10.25
2022-10-22T03:20:11.636Z,8.93
2022-10-22T03:21:28.365Z,7.47
2022-10-22T03:22:34.140Z,7.85
2022-10-22T03:23:39.145Z,13.38
2022-10-22T03:24:46.383Z,9.65
2022-10-22T03:25:50.205Z,11.18
2022-10-22T03:26:53.351Z,12.88
2022-10-22T03:28:00.791Z,8.35
2022-10-22T03:29:03.814Z,10.57
2022-10-22T03:30:07.919Z,11.18
2022-10-22T03:31:10.760Z,9.73
2022-10-22T03:32:14.387Z,10.77
2022-10-22T03:33:17.142Z,11.68
2022-10-22T03:34:20.013Z,12.95
2022-10-22T03:35:22.938Z,10.43
2022-10-22T03:36:26.224Z,9.70
2022-10-22T03:37:29.093Z,12.25
2022-10-22T03:38:33.055Z,12.27
2022-10-22T03:39:37.529Z,9.82
2022-10-22T03:40:41.974Z,13.27
2022-10-22T03:41:45.380Z,13.45
2022-10-22T03:42:48.380Z,11.48
2022-10-22T03:43:53.307Z,12.75
2022-10-22T03:44:56.173Z,11.25
2022-10-22T03:45:58.934Z,11.23
2022-10-22T03:47:02.800Z,11.70
2022-10-22T03:48:06.180Z,9.60
2022-10-22T03:49:09.213Z,9.57
2022-10-22T03:50:12.083Z,13.73
2022-10-22T03:51:15.224Z,7.32
2022-10-22T03:52:18.378Z,10.70
2022-10-22T03:54:28.839Z,11.32
2022-10-22T03:55:31.617Z,9.43
2022-10-22T03:56:34.494Z,8.63
2022-10-22T03:57:37.568Z,10.82
2022-10-22T03:58:41.659Z,12.60
2022-10-22T03:59:46.616Z,9.07
2022-10-22T04:00:49.437Z,13.02
2022-10-22T04:01:52.214Z,9.38
2022-10-22T04:02:55.022Z,10.20
2022-10-22T04:03:58.853Z,11.68
2022-10-22T04:05:01.853Z,11.55
2022-10-22T04:06:09.977Z,12.35
2022-10-22T04:07:12.985Z,9.02
2022-10-22T04:08:15.958Z,9.43
2022-10-22T04:09:18.843Z,11.25
2022-10-22T04:10:21.736Z,11.35
2022-10-22T04:11:24.718Z,12.75
2022-10-22T04:12:27.726Z,10.35
2022-10-22T04:13:30.648Z,11.85
2022-10-22T04:14:33.882Z,9.70
2022-10-22T04:15:36.794Z,12.07
2022-10-22T04:16:41.403Z,9.77
2022-10-22T04:17:44.445Z,11.20
2022-10-22T04:18:48.923Z,24.35
2022-10-22T04:19:51.769Z,13.88
2022-10-22T04:20:54.620Z,20.42
2022-10-22T04:22:00.987Z,22.92
2022-10-22T04:23:03.807Z,25.98
2022-10-22T04:24:10.266Z,17.62
2022-10-22T04:25:13.084Z,16.52
2022-10-22T04:26:17.057Z,13.05
2022-10-22T04:27:19.942Z,10.48
2022-10-22T04:28:23.837Z,8.65
2022-10-22T04:29:26.693Z,11.90
2022-10-22T04:30:29.717Z,11.60
2022-10-22T04:31:32.541Z,11.25
2022-10-22T04:32:35.470Z,13.82
2022-10-22T04:33:38.482Z,12.82
2022-10-22T04:34:41.412Z,13.85
2022-10-22T04:35:44.264Z,13.38
2022-10-22T04:36:47.148Z,26.33
2022-10-22T04:37:49.961Z,18.77
2022-10-22T04:38:56.411Z,17.15
2022-10-22T04:39:59.277Z,20.45
2022-10-22T04:41:16.907Z,15.05
2022-10-22T04:42:19.782Z,15.63
2022-10-22T04:43:22.517Z,22.35
2022-10-22T04:44:29.267Z,22.42
2022-10-22T04:45:33.873Z,20.92
2022-10-22T04:46:37.286Z,22.02
2022-10-22T04:47:40.459Z,29.50
2022-10-22T04:48:45.259Z,24.87
2022-10-22T04:49:48.089Z,27.13
2022-10-22T04:50:50.959Z,22.87
2022-10-22T04:51:57.429Z,23.60
2022-10-22T04:53:00.227Z,21.67
2022-10-22T04:54:06.277Z,21.98
2022-10-22T04:55:10.436Z,22.02
2022-10-22T04:56:22.183Z,15.80
2022-10-22T04:57:24.945Z,10.73
2022-10-22T04:58:27.779Z,11.32
2022-10-22T04:59:30.603Z,12.48
2022-10-22T05:00:33.525Z,17.37
2022-10-22T05:01:42.654Z,11.32
2022-10-22T05:02:50.150Z,9.70
2022-10-22T05:03:56.327Z,11.90
2022-10-22T05:04:59.027Z,11.60
2022-10-22T05:06:02.645Z,10.57
2022-10-22T05:07:05.420Z,13.48
2022-10-22T05:08:08.200Z,13.15
2022-10-22T05:09:16.933Z,11.88
2022-10-22T05:10:19.950Z,16.45
2022-10-22T05:11:29.736Z,12.00
2022-10-22T05:12:32.754Z,11.50
2022-10-22T05:13:35.652Z,12.37
2022-10-22T05:14:43.983Z,10.25
2022-10-22T05:15:48.748Z,12.32
2022-10-22T05:16:52.608Z,14.10
2022-10-22T05:17:55.464Z,9.82
2022-10-22T05:19:01.443Z,14.30
2022-10-22T05:20:05.919Z,11.85
2022-10-22T05:21:15.437Z,12.30
2022-10-22T05:22:18.251Z,18.50
2022-10-22T05:23:21.113Z,15.50
2022-10-22T05:24:24.773Z,11.38
2022-10-22T05:25:27.656Z,13.35
2022-10-22T05:26:30.576Z,11.20
2022-10-22T05:27:33.302Z,9.40
2022-10-22T05:28:36.256Z,14.38
2022-10-22T05:29:39.102Z,10.82
2022-10-22T05:30:41.984Z,14.10
2022-10-22T05:31:44.821Z,9.98
2022-10-22T05:32:47.619Z,12.30
2022-10-22T05:33:50.587Z,11.68
2022-10-22T05:34:53.341Z,10.40
2022-10-22T05:35:56.777Z,9.90
2022-10-22T05:37:02.415Z,16.23
2022-10-22T05:38:05.220Z,12.93
2022-10-22T05:39:08.278Z,15.15
2022-10-22T05:40:19.289Z,12.45
2022-10-22T05:41:30.063Z,17.33
2022-10-22T05:42:33.609Z,12.85
2022-10-22T05:43:37.616Z,12.93
2022-10-22T05:44:41.114Z,23.10
2022-10-22T05:45:43.958Z,17.50
2022-10-22T05:46:46.674Z,14.10
2022-10-22T05:47:49.459Z,13.95
2022-10-22T05:48:54.878Z,14.60
2022-10-22T05:49:57.786Z,11.88
2022-10-22T05:51:05.774Z,11.77
2022-10-22T05:52:08.645Z,10.80
2022-10-22T05:53:12.655Z,15.57
2022-10-22T05:54:20.936Z,11.20
2022-10-22T05:55:24.140Z,11.75
2022-10-22T05:56:28.667Z,11.32
2022-10-22T05:57:31.536Z,14.77
2022-10-22T05:58:35.452Z,9.85
2022-10-22T05:59:38.228Z,9.45
2022-10-22T06:00:41.649Z,12.30
2022-10-22T06:01:44.959Z,10.05
2022-10-22T06:02:51.825Z,9.40
2022-10-22T06:03:57.201Z,9.13
2022-10-22T06:05:00.507Z,12.15
2022-10-22T06:06:27.917Z,10.98
2022-10-22T06:07:31.218Z,10.20
2022-10-22T06:08:37.442Z,10.68
2022-10-22T06:09:40.343Z,10.52
2022-10-22T06:10:44.684Z,19.05
2022-10-22T06:11:48.465Z,11.80
2022-10-22T06:12:51.283Z,11.40
2022-10-22T06:13:54.095Z,13.52
2022-10-22T06:15:00.418Z,12.40
2022-10-22T06:16:03.186Z,10.18
2022-10-22T06:17:06.581Z,10.90
2022-10-22T06:18:09.466Z,11.88
2022-10-22T06:19:14.574Z,14.25
2022-10-22T06:20:17.821Z,11.48
2022-10-22T06:21:20.675Z,13.50
2022-10-22T06:22:23.600Z,15.00
2022-10-22T06:23:26.487Z,12.30
2022-10-22T06:24:29.490Z,15.95
2022-10-22T06:25:32.826Z,16.67
2022-10-22T06:26:35.738Z,16.40
2022-10-22T06:27:40.384Z,18.58
2022-10-22T06:28:43.211Z,13.35
2022-10-22T06:29:46.044Z,16.37
2022-10-22T06:30:48.881Z,15.98
2022-10-22T06:31:55.495Z,14.07
2022-10-22T06:32:58.510Z,17.27
2022-10-22T06:34:01.481Z,17.95
2022-10-22T06:35:04.574Z,17.10
2022-10-22T06:36:09.294Z,14.93
2022-10-22T06:37:14.040Z,15.80
2022-10-22T06:38:17.073Z,16.85
2022-10-22T06:39:23.307Z,19.48
2022-10-22T06:40:26.205Z,20.42
2022-10-22T06:41:29.774Z,18.25
2022-10-22T06:42:36.282Z,15.65
2022-10-22T06:43:39.868Z,17.20
2022-10-22T06:44:42.610Z,17.73
2022-10-22T06:45:45.520Z,17.40
2022-10-22T06:46:52.751Z,19.80
2022-10-22T06:47:56.076Z,14.10
2022-10-22T06:49:02.789Z,12.40
2022-10-22T06:50:06.172Z,17.75
2022-10-22T06:51:12.358Z,18.77
2022-10-22T06:52:15.316Z,20.27
2022-10-22T06:53:18.147Z,15.95
2022-10-22T06:54:22.378Z,18.12
2022-10-22T06:55:25.190Z,14.48
2022-10-22T06:56:29.682Z,19.48
2022-10-22T06:57:32.512Z,16.90
2022-10-22T06:58:36.089Z,15.60
2022-10-22T06:59:39.080Z,17.12
2022-10-22T07:00:42.047Z,16.27
2022-10-22T07:01:44.868Z,17.85
2022-10-22T07:02:56.492Z,16.83
2022-10-22T07:04:03.588Z,20.60
2022-10-22T07:05:10.432Z,14.77
2022-10-22T07:06:14.951Z,16.00
2022-10-22T07:07:17.814Z,14.18
2022-10-22T07:08:20.706Z,16.58
2022-10-22T07:09:23.776Z,13.15
2022-10-22T07:10:29.921Z,14.00
2022-10-22T07:11:41.232Z,12.60
2022-10-22T07:12:44.279Z,18.90
2022-10-22T07:13:48.437Z,12.70
2022-10-22T07:14:51.355Z,14.45
2022-10-22T07:15:55.380Z,16.35
2022-10-22T07:16:58.457Z,14.70
2022-10-22T07:18:01.714Z,12.23
2022-10-22T07:19:05.839Z,17.10
2022-10-22T07:20:09.266Z,14.35
2022-10-22T07:21:13.098Z,14.87
2022-10-22T07:22:15.895Z,13.20
2022-10-22T07:23:18.747Z,15.13
2022-10-22T07:24:21.670Z,16.02
2022-10-22T07:25:24.598Z,17.12
2022-10-22T07:26:31.280Z,14.20
2022-10-22T07:27:34.147Z,12.00
2022-10-22T07:28:40.214Z,19.05
2022-10-22T07:29:43.320Z,14.55
2022-10-22T07:30:46.908Z,19.75
2022-10-22T07:31:53.306Z,13.00
2022-10-22T07:32:56.176Z,15.75
2022-10-22T07:33:59.076Z,25.58
2022-10-22T07:35:01.847Z,17.30
2022-10-22T07:36:08.527Z,19.80
2022-10-22T07:37:11.453Z,13.20
2022-10-22T07:38:14.503Z,15.40
2022-10-22T07:39:17.318Z,11.90
2022-10-22T07:40:20.414Z,11.68
2022-10-22T07:41:23.962Z,12.18
2022-10-22T07:42:26.827Z,10.80
2022-10-22T07:43:29.672Z,13.05
2022-10-22T07:44:32.468Z,13.52
2022-10-22T07:45:35.217Z,13.45
2022-10-22T07:46:38.092Z,12.18
2022-10-22T07:47:41.219Z,13.77
2022-10-22T07:48:44.264Z,14.50
2022-10-22T07:49:47.076Z,13.82
2022-10-22T07:50:51.462Z,13.57
2022-10-22T07:51:54.496Z,16.92
2022-10-22T07:52:58.281Z,16.20
2022-10-22T07:54:01.486Z,22.20
2022-10-22T07:55:05.104Z,17.95
2022-10-22T07:56:08.872Z,17.20
2022-10-22T07:57:12.537Z,14.20
2022-10-22T07:58:15.617Z,18.37
2022-10-22T07:59:18.538Z,13.07
2022-10-22T08:00:24.479Z,17.73
2022-10-22T08:01:28.352Z,17.20
2022-10-22T08:02:31.145Z,16.90
2022-10-22T08:03:34.102Z,16.67
2022-10-22T08:04:36.895Z,21.08
2022-10-22T08:05:40.098Z,17.27
2022-10-22T08:06:45.808Z,14.32
2022-10-22T08:07:50.161Z,17.15
2022-10-22T08:08:53.034Z,14.38
2022-10-22T08:09:56.028Z,12.85
2022-10-22T08:11:00.758Z,16.75
2022-10-22T08:12:03.803Z,16.62
2022-10-22T08:13:07.555Z,15.45
2022-10-22T08:14:10.428Z,12.02
2022-10-22T08:15:13.220Z,13.38
2022-10-22T08:16:16.024Z,13.90
2022-10-22T08:17:18.837Z,13.70
2022-10-22T08:18:21.739Z,11.93
2022-10-22T08:19:24.842Z,12.77
2022-10-22T08:20:27.640Z,14.73
2022-10-22T08:21:30.565Z,18.17
2022-10-22T08:22:33.424Z,14.93
2022-10-22T08:23:36.635Z,13.73
2022-10-22T08:24:39.450Z,11.02
2022-10-22T08:25:42.305Z,14.95
2022-10-22T08:26:45.322Z,19.62
2022-10-22T08:27:48.298Z,16.48
2022-10-22T08:28:51.168Z,18.48
2022-10-22T08:29:54.151Z,12.98
2022-10-22T08:30:57.111Z,19.70
2022-10-22T08:31:59.950Z,17.12
2022-10-22T08:33:02.793Z,17.50
2022-10-22T08:34:09.377Z,18.08
2022-10-22T08:35:14.161Z,16.25
2022-10-22T08:36:19.885Z,15.77
2022-10-22T08:37:22.974Z,14.60
2022-10-22T08:38:25.966Z,24.25
2022-10-22T08:39:28.981Z,16.02
2022-10-22T08:40:40.359Z,17.95
2022-10-22T08:42:14.496Z,15.00
2022-10-22T08:43:46.762Z,19.85
2022-10-22T08:46:32.022Z,21.60
2022-10-22T08:47:40.497Z,17.15
2022-10-22T08:48:45.583Z,15.32
2022-10-22T08:49:48.532Z,19.60
2022-10-22T08:50:54.943Z,13.60
2022-10-22T08:51:59.631Z,13.30
2022-10-22T08:53:08.305Z,17.15
2022-10-22T08:54:31.103Z,19.80
2022-10-22T08:55:37.278Z,13.02
2022-10-22T08:56:44.658Z,15.98
2022-10-22T08:58:03.720Z,13.52
2022-10-22T08:59:10.866Z,17.25
2022-10-22T09:00:29.077Z,21.58
2022-10-22T09:01:42.463Z,17.42
2022-10-22T09:02:51.321Z,16.73
2022-10-22T09:04:01.782Z,17.62
2022-10-22T09:05:28.697Z,15.43
2022-10-22T09:06:41.433Z,14.00
2022-10-22T09:07:48.921Z,13.23
2022-10-22T09:08:53.052Z,16.92
2022-10-22T09:10:00.008Z,19.45
2022-10-22T09:11:14.085Z,14.55
2022-10-22T09:12:21.523Z,14.43
2022-10-22T09:13:24.844Z,14.85
2022-10-22T09:14:28.084Z,17.87
2022-10-22T09:15:31.746Z,15.23
2022-10-22T09:16:43.389Z,14.07
2022-10-22T09:18:03.830Z,16.23
2022-10-22T09:19:18.522Z,17.17
2022-10-22T09:20:27.045Z,15.75
2022-10-22T09:21:41.987Z,15.27
2022-10-22T09:23:18.500Z,16.98
2022-10-22T09:24:32.239Z,16.73
2022-10-22T09:25:37.715Z,10.93
2022-10-22T09:26:41.621Z,16.12
2022-10-22T09:27:44.684Z,16.33
2022-10-22T09:28:51.247Z,13.02
2022-10-22T09:29:54.221Z,13.73
2022-10-22T09:31:00.356Z,18.60
2022-10-22T09:32:03.324Z,14.98
2022-10-22T09:33:23.978Z,15.88
2022-10-22T09:34:29.535Z,16.87
2022-10-22T09:35:36.078Z,14.98
2022-10-22T09:36:39.266Z,15.40
2022-10-22T09:37:52.069Z,18.10
2022-10-22T09:38:55.119Z,17.27
2022-10-22T09:39:59.330Z,12.60
2022-10-22T09:41:04.247Z,15.88
2022-10-22T09:42:08.443Z,15.30
2022-10-22T09:43:15.135Z,17.50
2022-10-22T09:44:19.520Z,14.65
2022-10-22T09:45:29.378Z,15.70
2022-10-22T09:46:44.203Z,16.60
2022-10-22T09:48:01.595Z,14.57
2022-10-22T09:49:14.860Z,19.15
2022-10-22T09:50:23.277Z,14.75
2022-10-22T09:51:48.380Z,14.07
2022-10-22T09:53:15.571Z,16.37
2022-10-22T09:54:33.102Z,16.10
2022-10-22T09:55:43.382Z,10.75
2022-10-22T09:56:52.801Z,17.83
2022-10-22T09:58:00.743Z,13.80
2022-10-22T09:59:04.538Z,14.65
2022-10-22T10:00:12.960Z,14.00
2022-10-22T10:01:22.798Z,19.00
2022-10-22T10:02:44.436Z,14.15
2022-10-22T10:04:57.967Z,12.32
2022-10-22T10:06:06.246Z,16.52
2022-10-22T10:07:18.521Z,25.52
2022-10-22T10:08:22.643Z,17.40
2022-10-22T10:09:27.374Z,15.40
2022-10-22T10:10:39.357Z,15.30
2022-10-22T10:11:49.115Z,17.65
2022-10-22T10:13:02.979Z,15.20
2022-10-22T10:14:28.945Z,20.25
2022-10-22T10:15:47.083Z,15.70
2022-10-22T10:17:03.309Z,16.83
2022-10-22T10:18:25.788Z,15.98
2022-10-22T10:19:47.937Z,15.45
2022-10-22T10:21:04.606Z,22.63
2022-10-22T10:22:30.793Z,13.45
2022-10-22T10:23:36.454Z,15.75
2022-10-22T10:25:13.426Z,11.57
2022-10-22T10:26:43.974Z,19.33
2022-10-22T10:28:18.624Z,17.85
2022-10-22T10:29:25.606Z,22.42
2022-10-22T10:30:28.684Z,17.00
2022-10-22T10:31:43.583Z,13.95
2022-10-22T10:33:20.061Z,14.68
2022-10-22T10:34:25.894Z,17.83
2022-10-22T10:35:43.627Z,18.33
2022-10-22T10:37:01.743Z,14.43
2022-10-22T10:38:25.919Z,16.10
2022-10-22T10:40:25.902Z,16.25
2022-10-22T10:41:56.351Z,13.13
2022-10-22T10:43:21.723Z,17.58
2022-10-22T10:44:49.635Z,16.27
2022-10-22T10:46:09.697Z,17.87
2022-10-22T10:47:32.640Z,17.52
2022-10-22T10:48:54.168Z,17.20
2022-10-22T10:50:23.508Z,13.38
2022-10-22T10:51:44.908Z,15.40
2022-10-22T10:53:17.022Z,17.05
2022-10-22T10:56:14.752Z,17.10
2022-10-22T10:57:54.936Z,13.98
2022-10-22T10:59:07.652Z,17.02
2022-10-22T11:00:13.483Z,24.87
2022-10-22T11:01:33.884Z,17.35
2022-10-22T11:03:27.400Z,21.30
2022-10-22T11:04:46.187Z,18.42
2022-10-22T11:05:56.087Z,17.35
2022-10-22T11:07:11.554Z,17.25
2022-10-22T11:08:27.101Z,15.77
2022-10-22T11:09:53.391Z,15.65
2022-10-22T11:11:14.880Z,20.85
2022-10-22T11:12:34.209Z,16.55
2022-10-22T11:13:55.968Z,17.80
2022-10-22T11:16:37.632Z,16.85
2022-10-22T11:18:53.821Z,15.30
2022-10-22T11:20:03.910Z,18.83
2022-10-22T11:21:45.759Z,21.55
2022-10-22T11:23:18.211Z,28.08
2022-10-22T11:24:31.266Z,21.00
2022-10-22T11:25:40.976Z,20.40
2022-10-22T11:27:05.072Z,21.58
2022-10-22T11:28:24.122Z,19.90
2022-10-22T11:29:33.973Z,18.50
2022-10-22T11:30:38.582Z,17.73
2022-10-22T11:31:42.304Z,19.92
2022-10-22T11:32:50.965Z,22.77
2022-10-22T11:34:33.209Z,20.58
2022-10-22T11:35:42.971Z,18.80
2022-10-22T11:36:51.512Z,15.95
2022-10-22T11:37:57.014Z,30.73
2022-10-22T11:39:02.827Z,25.12
2022-10-22T11:40:22.466Z,19.30
2022-10-22T11:41:32.469Z,25.77
2022-10-22T11:42:38.584Z,20.55
2022-10-22T11:44:10.928Z,21.70
2022-10-22T11:45:13.684Z,24.87
2022-10-22T11:46:16.530Z,24.67
2022-10-22T11:47:25.594Z,22.23
2022-10-22T11:48:37.356Z,25.77
2022-10-22T11:49:45.565Z,25.98
2022-10-22T11:51:01.051Z,27.13
2022-10-22T11:52:28.599Z,34.60
2022-10-22T11:53:37.873Z,24.00
2022-10-22T11:54:44.862Z,21.55
2022-10-22T11:55:57.745Z,21.40
2022-10-22T11:57:15.309Z,25.42
2022-10-22T11:58:33.349Z,20.55
2022-10-22T11:59:47.629Z,19.60
2022-10-22T12:00:50.546Z,16.45
2022-10-22T12:01:59.389Z,15.57
2022-10-22T12:03:16.310Z,18.52
2022-10-22T12:04:39.747Z,17.20
2022-10-22T12:05:43.833Z,17.05
2022-10-22T12:07:02.139Z,21.08
2022-10-22T12:08:14.830Z,18.20
2022-10-22T12:09:20.035Z,22.10
2022-10-22T12:10:27.712Z,16.45
2022-10-22T12:11:47.999Z,16.85
2022-10-22T12:13:12.168Z,15.90
2022-10-22T12:14:28.543Z,17.40
2022-10-22T12:15:32.009Z,18.62
2022-10-22T12:16:55.807Z,19.30
2022-10-22T12:18:02.439Z,17.55
2022-10-22T12:19:32.360Z,16.77
2022-10-22T12:20:36.511Z,19.85
2022-10-22T12:21:42.053Z,20.10
2022-10-22T12:22:45.140Z,18.15
2022-10-22T12:23:50.930Z,18.12
2022-10-22T12:24:58.007Z,16.10
2022-10-22T12:26:00.767Z,17.05
2022-10-22T12:27:04.181Z,19.90
2022-10-22T12:28:12.882Z,17.02
2022-10-22T12:29:17.579Z,18.52
2022-10-22T12:30:25.015Z,17.87
2022-10-22T12:31:35.797Z,16.87
2022-10-22T12:32:42.768Z,16.12
2022-10-22T12:33:45.648Z,18.40
2022-10-22T12:34:53.353Z,19.58
2022-10-22T12:35:57.955Z,18.08
2022-10-22T12:37:05.757Z,20.30
2022-10-22T12:38:21.955Z,21.67
2022-10-22T12:39:28.219Z,19.77
2022-10-22T12:40:35.050Z,19.00
2022-10-22T12:41:39.527Z,19.30
2022-10-22T12:42:59.099Z,17.87
2022-10-22T12:44:04.454Z,18.15
2022-10-22T12:45:07.713Z,22.25
2022-10-22T12:46:16.641Z,17.87
2022-10-22T12:47:19.622Z,20.73
2022-10-22T12:48:25.740Z,22.45
2022-10-22T12:49:39.396Z,22.77
2022-10-22T12:50:45.744Z,20.00
2022-10-22T12:51:49.685Z,20.48
2022-10-22T12:52:55.915Z,19.37
2022-10-22T12:54:08.810Z,20.67
2022-10-22T12:55:19.950Z,19.87
2022-10-22T12:56:25.686Z,20.40
2022-10-22T12:57:28.513Z,19.95
2022-10-22T12:59:02.481Z,23.52
2022-10-22T13:00:25.144Z,18.75
2022-10-22T13:01:34.939Z,21.60
2022-10-22T13:02:37.874Z,17.60
2022-10-22T13:03:47.745Z,16.77
2022-10-22T13:05:09.392Z,22.92
2022-10-22T13:06:24.587Z,24.60
2022-10-22T13:07:39.889Z,16.05
2022-10-22T13:08:42.764Z,18.30
2022-10-22T13:09:56.656Z,18.08
2022-10-22T13:11:08.756Z,18.27
2022-10-22T13:12:16.599Z,15.95
2022-10-22T13:14:01.667Z,14.90
2022-10-22T13:15:23.267Z,19.85
2022-10-22T13:16:28.041Z,22.23
2022-10-22T13:17:42.400Z,23.25
2022-10-22T13:18:47.010Z,23.12
2022-10-22T13:19:53.035Z,18.80
2022-10-22T13:21:02.026Z,21.25
2022-10-22T13:22:05.242Z,15.98
2022-10-22T13:23:20.656Z,18.87
2022-10-22T13:24:24.790Z,25.70
2022-10-22T13:25:30.807Z,19.95
2022-10-22T13:26:37.817Z,16.65
2022-10-22T13:27:45.262Z,18.02
2022-10-22T13:28:53.841Z,19.90
2022-10-22T13:30:00.429Z,20.83
2022-10-22T13:31:15.772Z,21.95
2022-10-22T13:32:34.645Z,21.17
2022-10-22T13:33:41.654Z,20.08
2022-10-22T13:34:44.722Z,21.23
2022-10-22T13:35:47.588Z,19.17
2022-10-22T13:36:50.896Z,17.92
2022-10-22T13:37:55.737Z,20.15
2022-10-22T13:38:59.164Z,21.08
2022-10-22T13:40:01.964Z,20.58
2022-10-22T13:41:05.193Z,22.45
2022-10-22T13:42:14.116Z,19.77
2022-10-22T13:43:18.713Z,21.85
2022-10-22T13:44:21.658Z,18.60
2022-10-22T13:45:24.939Z,18.85
2022-10-22T13:46:27.975Z,23.70
2022-10-22T13:47:31.250Z,19.90
2022-10-22T13:48:34.152Z,21.80
2022-10-22T13:49:37.126Z,21.12
2022-10-22T13:50:40.313Z,26.15
2022-10-22T13:51:44.494Z,21.30
2022-10-22T13:52:52.206Z,20.27
2022-10-22T13:53:58.536Z,20.02
2022-10-22T13:55:01.381Z,21.92
2022-10-22T13:56:04.374Z,21.95
2022-10-22T13:57:10.788Z,19.50
2022-10-22T13:58:19.283Z,21.62
2022-10-22T13:59:23.792Z,19.98
2022-10-22T14:00:30.552Z,22.73
2022-10-22T14:01:33.304Z,24.23
2022-10-22T14:02:36.732Z,24.02
2022-10-22T14:03:41.431Z,21.52
2022-10-22T14:04:45.786Z,24.87
2022-10-22T14:05:49.397Z,28.90
2022-10-22T14:06:53.620Z,18.95
2022-10-22T14:07:58.417Z,22.58
2022-10-22T14:09:05.868Z,23.87
2022-10-22T14:10:23.572Z,20.27
2022-10-22T14:11:31.782Z,28.48
2022-10-22T14:12:35.740Z,22.62
2022-10-22T14:13:39.213Z,24.17
2022-10-22T14:14:42.712Z,22.80
2022-10-22T14:15:49.570Z,23.05
2022-10-22T14:16:54.197Z,22.30
2022-10-22T14:17:59.461Z,21.83
2022-10-22T14:19:10.801Z,21.05
2022-10-22T14:20:21.206Z,22.77
2022-10-22T14:21:24.164Z,23.65
2022-10-22T14:22:28.640Z,20.12
2022-10-22T14:23:32.815Z,24.83
2022-10-22T14:24:35.986Z,21.30
2022-10-22T14:25:39.074Z,26.27
2022-10-22T14:26:41.988Z,21.20
2022-10-22T14:27:45.535Z,29.48
2022-10-22T14:29:08.739Z,27.08
2022-10-22T14:30:17.894Z,22.95
2022-10-22T14:31:21.284Z,21.55
2022-10-22T14:32:24.249Z,23.70
2022-10-22T14:33:33.323Z,23.52
2022-10-22T14:34:36.770Z,25.15
2022-10-22T14:35:43.591Z,21.87
2022-10-22T14:36:47.065Z,29.20
2022-10-22T14:37:50.344Z,20.30
2022-10-22T14:38:53.364Z,23.17
2022-10-22T14:40:01.940Z,27.33
2022-10-22T14:41:16.330Z,20.60
2022-10-22T14:42:20.245Z,20.75
2022-10-22T14:43:28.832Z,23.42
2022-10-22T14:44:31.969Z,21.37
2022-10-22T14:45:34.826Z,21.15
2022-10-22T14:46:37.751Z,25.23